createdAt,value
2022-11-24T00:01:09.375Z,21.10
2022-11-24T00:03:36.060Z,24.00
2022-11-24T00:06:08.251Z,15.70
2022-11-24T00:08:35.592Z,26.08
2022-11-24T00:11:10.537Z,22.15
2022-11-24T00:13:37.677Z,24.20
2022-11-24T00:16:11.276Z,20.65
2022-11-24T00:18:39.633Z,15.52
2022-11-24T00:21:06.442Z,17.83
2022-11-24T00:23:33.266Z,17.98
2022-11-24T00:26:17.286Z,17.40
2022-11-24T00:28:44.881Z,16.33
2022-11-24T00:31:18.298Z,17.27
2022-11-24T00:33:49.384Z,12.70
2022-11-24T00:36:16.764Z,21.60
2022-11-24T00:38:43.776Z,13.68
2022-11-24T00:41:10.251Z,19.98
2022-11-24T00:43:36.746Z,18.77
2022-11-24T00:46:03.500Z,18.15
2022-11-24T00:48:30.728Z,15.18
2022-11-24T00:50:59.626Z,16.02
2022-11-24T00:53:26.428Z,18.73
2022-11-24T00:55:53.827Z,16.42
2022-11-24T00:58:20.263Z,19.38
2022-11-24T01:00:46.739Z,18.20
2022-11-24T01:03:14.260Z,19.73
2022-11-24T01:05:41.729Z,13.93
2022-11-24T01:08:08.182Z,15.02
2022-11-24T01:10:35.607Z,19.60
2022-11-24T01:13:02.231Z,21.23
2022-11-24T01:15:28.664Z,17.67
2022-11-24T01:17:55.055Z,19.48
2022-11-24T01:20:21.395Z,18.00
2022-11-24T01:22:48.902Z,21.30
2022-11-24T01:25:16.352Z,21.52
2022-11-24T01:27:42.756Z,22.55
2022-11-24T01:30:09.903Z,18.95
2022-11-24T01:32:36.371Z,21.35
2022-11-24T01:35:04.215Z,20.90
2022-11-24T01:37:30.973Z,19.13
2022-11-24T01:39:57.365Z,25.48
2022-11-24T01:42:24.107Z,18.75
2022-11-24T01:45:28.970Z,16.52
2022-11-24T01:47:55.954Z,23.15
2022-11-24T01:50:22.738Z,16.23
2022-11-24T01:52:53.505Z,24.55
2022-11-24T01:55:27.813Z,12.32
2022-11-24T01:58:00.251Z,16.88
2022-11-24T02:00:26.879Z,23.92
2022-11-24T02:02:53.468Z,17.73
2022-11-24T02:05:37.247Z,20.88
2022-11-24T02:08:04.629Z,17.60
2022-11-24T02:10:31.303Z,24.05
2022-11-24T02:12:59.507Z,15.07
2022-11-24T02:15:26.224Z,18.08
2022-11-24T02:17:52.640Z,16.00
2022-11-24T02:20:19.115Z,22.00
2022-11-24T02:22:49.116Z,13.90
2022-11-24T02:25:18.366Z,12.93
2022-11-24T02:27:48.216Z,14.82
2022-11-24T02:30:18.764Z,17.45
2022-11-24T02:32:45.127Z,16.00
2022-11-24T02:35:12.902Z,23.58
2022-11-24T02:37:39.222Z,20.40
2022-11-24T02:40:06.107Z,15.30
2022-11-24T02:42:38.769Z,11.85
2022-11-24T02:45:05.944Z,11.63
2022-11-24T02:47:32.262Z,21.15
2022-11-24T02:49:58.682Z,10.57
2022-11-24T02:52:26.010Z,12.80
2022-11-24T02:54:52.387Z,19.13
2022-11-24T02:57:19.076Z,16.90
2022-11-24T02:59:45.509Z,18.30
2022-11-24T03:02:11.850Z,19.13
2022-11-24T03:04:38.150Z,14.40
2022-11-24T03:07:04.455Z,17.63
2022-11-24T03:09:30.828Z,13.40
2022-11-24T03:11:57.236Z,14.43
2022-11-24T03:14:23.539Z,15.13
2022-11-24T03:16:49.900Z,14.23
2022-11-24T03:19:16.236Z,13.77
2022-11-24T03:21:42.529Z,11.00
2022-11-24T03:24:08.907Z,14.88
2022-11-24T03:26:35.753Z,14.80
2022-11-24T03:29:02.174Z,11.93
2022-11-24T03:31:28.591Z,9.07
2022-11-24T03:33:55.018Z,15.20
2022-11-24T03:36:21.354Z,12.95
2022-11-24T03:38:47.691Z,12.20
2022-11-24T03:41:14.136Z,11.45
2022-11-24T03:43:43.797Z,9.73
2022-11-24T03:46:12.032Z,9.75
2022-11-24T03:48:39.072Z,6.63
2022-11-24T03:51:05.630Z,10.95
2022-11-24T03:53:32.876Z,13.75
2022-11-24T03:55:59.728Z,8.15
2022-11-24T03:58:26.060Z,11.23
2022-11-24T04:00:54.158Z,6.03
2022-11-24T04:03:20.901Z,6.28
2022-11-24T04:05:47.564Z,8.70
2022-11-24T04:08:14.456Z,7.43
2022-11-24T04:10:41.077Z,7.68
2022-11-24T04:13:15.945Z,8.32
2022-11-24T04:15:43.463Z,9.20
2022-11-24T04:18:11.629Z,7.50
2022-11-24T04:20:38.684Z,6.53
2022-11-24T04:23:05.107Z,10.65
2022-11-24T04:25:31.990Z,8.98
2022-11-24T04:27:58.613Z,14.43
2022-11-24T04:30:26.778Z,13.40
2022-11-24T04:32:53.462Z,10.55
2022-11-24T04:35:20.551Z,14.90
2022-11-24T04:37:47.364Z,8.50
2022-11-24T04:40:14.281Z,10.40
2022-11-24T04:42:40.608Z,15.73
2022-11-24T04:45:07.898Z,22.08
2022-11-24T04:47:34.254Z,15.95
2022-11-24T04:50:00.514Z,18.05
2022-11-24T04:52:26.981Z,11.15
2022-11-24T04:54:53.313Z,11.85
2022-11-24T04:57:22.047Z,22.58
2022-11-24T04:59:50.227Z,17.20
2022-11-24T05:02:16.934Z,16.50
2022-11-24T05:04:43.407Z,19.30
2022-11-24T05:07:19.088Z,12.82
2022-11-24T05:09:58.979Z,12.15
2022-11-24T05:12:27.374Z,14.85
2022-11-24T05:14:53.634Z,16.88
2022-11-24T05:17:19.930Z,12.23
2022-11-24T05:19:46.259Z,12.35
2022-11-24T05:22:12.569Z,14.15
2022-11-24T05:24:38.938Z,10.20
2022-11-24T05:27:05.232Z,17.85
2022-11-24T05:29:31.502Z,11.30
2022-11-24T05:31:57.752Z,12.15
2022-11-24T05:34:24.102Z,7.68
2022-11-24T05:36:50.515Z,2.63
2022-11-24T05:39:16.826Z,5.10
2022-11-24T05:41:43.078Z,6.32
2022-11-24T05:44:09.417Z,3.17
2022-11-24T05:46:35.760Z,4.90
2022-11-24T05:49:02.094Z,5.90
2022-11-24T05:51:28.574Z,6.40
2022-11-24T05:53:54.930Z,6.38
2022-11-24T05:56:21.260Z,6.72
2022-11-24T05:58:47.696Z,4.47
2022-11-24T06:01:14.007Z,2.50
2022-11-24T06:03:41.323Z,6.40
2022-11-24T06:06:07.806Z,5.15
2022-11-24T06:08:34.132Z,3.80
2022-11-24T06:11:02.502Z,5.18
2022-11-24T06:13:31.803Z,4.28
2022-11-24T06:15:59.377Z,3.50
2022-11-24T06:18:25.758Z,5.13
2022-11-24T06:21:09.716Z,3.15
2022-11-24T06:23:36.895Z,3.25
2022-11-24T06:26:03.305Z,3.15
2022-11-24T06:28:29.737Z,2.55
2022-11-24T06:31:00.523Z,3.50
2022-11-24T06:33:26.835Z,3.15
2022-11-24T06:35:59.341Z,3.33
2022-11-24T06:38:25.721Z,4.03
2022-11-24T06:40:59.351Z,2.90
2022-11-24T06:43:27.754Z,3.33
2022-11-24T06:45:54.185Z,3.65
2022-11-24T06:48:20.543Z,3.80
2022-11-24T06:50:46.923Z,4.93
2022-11-24T06:53:13.353Z,4.90
2022-11-24T06:55:40.513Z,3.85
2022-11-24T06:58:06.967Z,4.25
2022-11-24T07:00:33.399Z,5.70
2022-11-24T07:03:00.797Z,7.60
2022-11-24T07:05:27.584Z,8.85
2022-11-24T07:07:53.980Z,6.40
2022-11-24T07:10:20.338Z,7.18
2022-11-24T07:12:46.759Z,7.78
2022-11-24T07:15:13.170Z,9.43
2022-11-24T07:17:40.942Z,9.10
2022-11-24T07:20:08.755Z,7.55
2022-11-24T07:22:35.256Z,8.48
2022-11-24T07:25:02.057Z,9.68
2022-11-24T07:27:28.349Z,9.45
2022-11-24T07:29:54.656Z,6.65
2022-11-24T07:32:21.179Z,10.85
2022-11-24T07:34:47.978Z,7.47
2022-11-24T07:37:14.480Z,8.50
2022-11-24T07:39:40.881Z,9.57
2022-11-24T07:42:07.241Z,8.65
2022-11-24T07:44:33.988Z,13.68
2022-11-24T07:47:00.495Z,11.05
2022-11-24T07:49:26.923Z,9.75
2022-11-24T07:51:53.208Z,9.85
2022-11-24T07:54:19.608Z,12.40
2022-11-24T07:56:48.538Z,11.43
2022-11-24T07:59:15.046Z,11.52
2022-11-24T08:01:41.494Z,10.43
2022-11-24T08:04:07.891Z,12.40
2022-11-24T08:06:39.803Z,9.13
2022-11-24T08:09:09.649Z,10.48
2022-11-24T08:11:36.075Z,8.77
2022-11-24T08:14:02.360Z,12.63
2022-11-24T08:16:28.786Z,10.70
2022-11-24T08:18:55.723Z,14.50
2022-11-24T08:21:23.259Z,11.75
2022-11-24T08:23:53.229Z,13.80
2022-11-24T08:26:19.742Z,9.38
2022-11-24T08:28:47.212Z,13.10
2022-11-24T08:31:16.224Z,10.75
2022-11-24T08:33:42.867Z,11.27
2022-11-24T08:36:14.988Z,14.23
2022-11-24T08:38:41.718Z,11.40
2022-11-24T08:41:10.680Z,13.00
2022-11-24T08:43:37.448Z,12.07
2022-11-24T08:46:07.457Z,12.90
2022-11-24T08:48:34.526Z,8.18
2022-11-24T08:51:10.615Z,12.05
2022-11-24T08:53:37.106Z,14.90
2022-11-24T08:56:04.760Z,11.07
2022-11-24T08:58:32.344Z,13.30
2022-11-24T09:01:06.946Z,9.55
2022-11-24T09:03:33.832Z,15.55
2022-11-24T09:06:01.921Z,14.88
2022-11-24T09:08:30.348Z,15.98
2022-11-24T09:11:08.162Z,13.55
2022-11-24T09:13:35.103Z,12.55
2022-11-24T09:16:26.005Z,20.55
2022-11-24T09:19:10.505Z,12.68
2022-11-24T09:21:36.835Z,16.98
2022-11-24T09:24:03.755Z,13.70
2022-11-24T09:26:32.620Z,13.75
2022-11-24T09:29:00.657Z,12.88
2022-11-24T09:31:30.666Z,10.98
2022-11-24T09:33:57.561Z,8.68
2022-11-24T09:36:25.142Z,18.65
2022-11-24T09:38:52.266Z,14.40
2022-11-24T09:41:24.517Z,15.35
2022-11-24T09:43:59.855Z,13.13
2022-11-24T09:46:47.422Z,17.55
2022-11-24T09:49:27.807Z,15.05
2022-11-24T09:51:56.106Z,14.52
2022-11-24T09:54:28.486Z,12.23
2022-11-24T09:57:00.357Z,21.73
2022-11-24T09:59:27.925Z,12.85
2022-11-24T10:01:54.314Z,11.23
2022-11-24T10:04:25.763Z,14.02
2022-11-24T10:06:58.941Z,12.80
2022-11-24T10:09:59.370Z,14.88
2022-11-24T10:12:46.931Z,13.65
2022-11-24T10:15:28.451Z,24.77
2022-11-24T10:18:18.230Z,11.32
2022-11-24T10:21:19.568Z,10.52
2022-11-24T10:23:51.659Z,11.10
2022-11-24T10:26:19.082Z,12.55
2022-11-24T10:28:54.531Z,11.15
2022-11-24T10:31:28.795Z,15.90
2022-11-24T10:33:56.316Z,19.15
2022-11-24T10:36:40.214Z,15.65
2022-11-24T10:39:15.600Z,15.02
2022-11-24T10:41:46.568Z,14.43
2022-11-24T10:44:13.729Z,16.20
2022-11-24T10:46:40.346Z,20.40
2022-11-24T10:49:06.789Z,17.23
2022-11-24T10:51:44.951Z,15.90
2022-11-24T10:54:17.013Z,11.68
2022-11-24T10:56:44.856Z,15.35
2022-11-24T10:59:32.966Z,13.45
2022-11-24T11:01:59.985Z,17.00
2022-11-24T11:04:28.018Z,22.23
2022-11-24T11:07:17.272Z,19.98
2022-11-24T11:09:43.959Z,18.48
2022-11-24T11:12:42.803Z,17.98
2022-11-24T11:15:31.210Z,25.40
2022-11-24T11:18:01.367Z,17.58
2022-11-24T11:20:34.659Z,16.98
2022-11-24T11:23:14.306Z,20.40
2022-11-24T11:25:40.716Z,20.15
2022-11-24T11:28:22.224Z,17.73
2022-11-24T11:34:15.980Z,16.90
2022-11-24T11:36:50.230Z,23.10
2022-11-24T11:39:22.278Z,23.48
2022-11-24T11:41:53.391Z,21.45
2022-11-24T11:44:41.737Z,21.83
2022-11-24T11:47:17.285Z,18.88
2022-11-24T11:49:44.817Z,15.32
2022-11-24T11:52:40.407Z,20.20
2022-11-24T11:55:22.922Z,26.05
2022-11-24T11:58:17.759Z,20.58
2022-11-24T12:01:03.237Z,18.80
2022-11-24T12:04:01.029Z,29.73
2022-11-24T12:06:40.386Z,20.58
2022-11-24T12:09:21.318Z,24.98
2022-11-24T12:12:04.398Z,15.32
2022-11-24T12:14:51.947Z,14.73
2022-11-24T12:17:35.595Z,18.02
2022-11-24T12:20:07.862Z,17.55
2022-11-24T12:23:00.237Z,13.75
2022-11-24T12:25:42.511Z,20.25
2022-11-24T12:28:39.347Z,18.65
2022-11-24T12:31:07.900Z,22.90
2022-11-24T12:33:49.170Z,26.38
2022-11-24T12:36:55.682Z,19.80
2022-11-24T12:39:26.823Z,21.95
2022-11-24T12:42:03.394Z,19.15
2022-11-24T12:44:56.806Z,20.75
2022-11-24T12:47:44.543Z,17.25
2022-11-24T12:50:15.835Z,19.85
2022-11-24T12:52:54.133Z,16.52
2022-11-24T12:55:24.235Z,23.52
2022-11-24T12:58:10.758Z,18.48
2022-11-24T13:00:52.566Z,21.30
2022-11-24T13:03:27.936Z,16.70
2022-11-24T13:06:07.360Z,19.45
2022-11-24T13:08:36.535Z,24.27
2022-11-24T13:11:21.031Z,12.82
2022-11-24T13:13:59.417Z,22.65
2022-11-24T13:16:59.329Z,21.05
2022-11-24T13:19:16.988Z,24.10
2022-11-24T13:21:43.260Z,20.70
2022-11-24T13:24:19.981Z,16.10
2022-11-24T13:26:52.612Z,20.35
2022-11-24T13:29:27.855Z,22.10
2022-11-24T13:31:55.344Z,26.92
2022-11-24T13:34:39.976Z,26.17
2022-11-24T13:37:31.784Z,16.08
2022-11-24T13:40:21.864Z,21.20
2022-11-24T13:42:57.164Z,19.05
2022-11-24T13:45:38.817Z,18.80
2022-11-24T13:48:20.776Z,21.58
2022-11-24T13:50:50.832Z,21.20
2022-11-24T13:53:32.585Z,17.92
2022-11-24T13:56:19.088Z,26.42
2022-11-24T13:58:58.872Z,16.42
2022-11-24T14:01:35.759Z,21.10
2022-11-24T14:04:32.870Z,22.27
2022-11-24T14:07:09.074Z,20.95
2022-11-24T14:09:35.905Z,18.73
2022-11-24T14:12:05.449Z,17.73
2022-11-24T14:14:31.787Z,20.23
2022-11-24T14:17:13.355Z,29.08
2022-11-24T14:19:40.745Z,21.20
2022-11-24T14:22:15.288Z,22.90
2022-11-24T14:24:43.485Z,23.65
2022-11-24T14:27:15.577Z,14.60
2022-11-24T14:29:56.775Z,19.45
2022-11-24T14:32:23.790Z,13.75
2022-11-24T14:34:50.263Z,18.52
2022-11-24T14:37:16.747Z,23.30
2022-11-24T14:39:43.161Z,17.15
2022-11-24T14:42:25.022Z,24.83
2022-11-24T14:45:01.544Z,21.75
2022-11-24T14:47:33.966Z,18.38
2022-11-24T14:50:22.582Z,23.10
2022-11-24T14:52:57.006Z,23.95
2022-11-24T14:55:41.201Z,21.58
2022-11-24T14:58:42.473Z,14.38
2022-11-24T15:01:28.824Z,14.02
2022-11-24T15:04:26.985Z,16.30
2022-11-24T15:07:05.180Z,19.77
2022-11-24T15:09:41.951Z,24.00
2022-11-24T15:12:34.402Z,16.50
2022-11-24T15:15:18.697Z,17.02
2022-11-24T15:17:50.480Z,16.35
2022-11-24T15:20:30.582Z,20.40
2022-11-24T15:23:26.135Z,16.13
2022-11-24T15:25:56.064Z,16.27
2022-11-24T15:28:23.806Z,16.80
2022-11-24T15:30:50.213Z,21.80
2022-11-24T15:33:18.115Z,10.18
2022-11-24T15:35:45.339Z,19.42
2022-11-24T15:38:12.374Z,16.73
2022-11-24T15:40:39.697Z,10.88
2022-11-24T15:43:26.142Z,16.13
2022-11-24T15:45:52.530Z,15.60
2022-11-24T15:48:18.944Z,17.52
2022-11-24T15:50:46.689Z,20.90
2022-11-24T15:53:31.162Z,23.42
2022-11-24T15:55:58.477Z,18.55
2022-11-24T15:58:24.929Z,17.92
2022-11-24T16:00:51.423Z,18.67
2022-11-24T16:03:46.384Z,17.13
2022-11-24T16:06:12.705Z,17.85
2022-11-24T16:08:38.970Z,14.70
2022-11-24T16:11:05.375Z,12.45
2022-11-24T16:13:31.809Z,16.42
2022-11-24T16:15:58.197Z,14.52
2022-11-24T16:18:24.478Z,18.40
2022-11-24T16:20:50.852Z,13.50
2022-11-24T16:23:17.307Z,16.08
2022-11-24T16:25:43.670Z,18.45
2022-11-24T16:28:10.038Z,19.23
2022-11-24T16:30:36.419Z,15.30
2022-11-24T16:33:03.797Z,16.63
2022-11-24T16:35:30.166Z,17.80
2022-11-24T16:37:56.832Z,16.50
2022-11-24T16:40:23.198Z,17.00
2022-11-24T16:42:49.566Z,15.32
2022-11-24T16:45:15.938Z,12.32
2022-11-24T16:47:42.559Z,13.38
2022-11-24T16:50:10.609Z,18.77
2022-11-24T16:52:37.983Z,21.23
2022-11-24T16:55:07.870Z,22.55
2022-11-24T16:57:35.575Z,16.83
2022-11-24T17:00:02.179Z,18.55
2022-11-24T17:02:28.642Z,15.20
2022-11-24T17:04:55.023Z,21.08
2022-11-24T17:07:21.558Z,21.67
2022-11-24T17:09:47.937Z,19.73
2022-11-24T17:12:14.447Z,22.73
2022-11-24T17:14:40.797Z,17.05
2022-11-24T17:17:07.110Z,14.77
2022-11-24T17:19:33.432Z,17.60
2022-11-24T17:21:59.846Z,13.25
2022-11-24T17:24:26.214Z,15.25
2022-11-24T17:26:52.636Z,13.77
2022-11-24T17:29:19.417Z,19.08
2022-11-24T17:31:45.778Z,16.52
2022-11-24T17:34:12.440Z,11.48
2022-11-24T17:36:38.970Z,15.13
2022-11-24T17:39:06.704Z,14.13
2022-11-24T17:41:33.585Z,14.55
2022-11-24T17:44:00.103Z,15.32
2022-11-24T17:46:28.282Z,15.95
2022-11-24T17:48:55.526Z,15.50
2022-11-24T17:51:23.997Z,16.15
2022-11-24T17:53:52.249Z,17.73
2022-11-24T17:56:24.243Z,14.40
2022-11-24T17:58:54.974Z,15.70
2022-11-24T18:01:22.076Z,10.13
2022-11-24T18:03:53.228Z,13.70
2022-11-24T18:06:20.411Z,15.05
2022-11-24T18:08:47.431Z,18.80
2022-11-24T18:11:19.629Z,18.02
2022-11-24T18:14:02.656Z,18.25
2022-11-24T18:16:31.543Z,15.68
2022-11-24T18:19:08.254Z,19.95
2022-11-24T18:21:35.607Z,17.08
2022-11-24T18:24:02.010Z,18.77
2022-11-24T18:26:28.511Z,20.15
2022-11-24T18:28:54.945Z,14.02
2022-11-24T18:31:21.336Z,14.18
2022-11-24T18:33:48.021Z,10.80
2022-11-24T18:36:19.575Z,17.55
2022-11-24T18:38:45.839Z,15.63
2022-11-24T18:41:13.897Z,11.57
2022-11-24T18:43:41.689Z,15.57
2022-11-24T18:46:13.937Z,15.20
2022-11-24T18:48:41.173Z,15.23
2022-11-24T18:51:08.058Z,19.15
2022-11-24T18:53:34.405Z,25.77
2022-11-24T18:56:05.930Z,28.73
2022-11-24T18:58:33.758Z,19.92
2022-11-24T19:01:17.562Z,17.67
2022-11-24T19:03:48.788Z,15.18
2022-11-24T19:06:21.368Z,20.92
2022-11-24T19:08:49.007Z,12.88
2022-11-24T19:11:24.309Z,10.52
2022-11-24T19:13:51.123Z,14.48
2022-11-24T19:16:19.328Z,18.92
2022-11-24T19:18:51.976Z,17.88
2022-11-24T19:21:19.979Z,15.32
2022-11-24T19:23:46.387Z,17.13
2022-11-24T19:26:12.669Z,15.07
2022-11-24T19:28:39.064Z,13.98
2022-11-24T19:31:11.559Z,17.52
2022-11-24T19:33:38.625Z,16.42
2022-11-24T19:36:12.104Z,16.02
2022-11-24T19:38:38.638Z,12.60
2022-11-24T19:41:14.446Z,13.63
2022-11-24T19:43:41.241Z,21.10
2022-11-24T19:46:13.118Z,13.75
2022-11-24T19:48:42.090Z,17.10
2022-11-24T19:51:12.419Z,16.92
2022-11-24T19:53:39.038Z,22.08
2022-11-24T19:56:07.016Z,19.02
2022-11-24T19:58:34.128Z,14.05
2022-11-24T20:01:11.441Z,16.70
2022-11-24T20:03:38.753Z,14.02
2022-11-24T20:06:06.785Z,15.30
2022-11-24T20:08:35.409Z,16.98
2022-11-24T20:11:12.468Z,25.40
2022-11-24T20:13:40.640Z,12.52
2022-11-24T20:16:12.374Z,13.15
2022-11-24T20:18:42.264Z,12.32
2022-11-24T20:21:14.086Z,12.30
2022-11-24T20:23:41.240Z,16.25
2022-11-24T20:26:16.551Z,13.85
2022-11-24T20:28:43.769Z,17.80
2022-11-24T20:31:14.054Z,16.00
2022-11-24T20:33:41.337Z,14.63
2022-11-24T20:36:13.627Z,16.70
2022-11-24T20:38:41.566Z,10.43
2022-11-24T20:41:13.517Z,12.13
2022-11-24T20:43:40.593Z,10.07
2022-11-24T20:46:13.548Z,13.43
2022-11-24T20:48:40.114Z,14.43
2022-11-24T20:51:09.153Z,14.75
2022-11-24T20:53:36.299Z,18.77
2022-11-24T20:56:09.582Z,12.45
2022-11-24T20:58:37.199Z,9.82
2022-11-24T21:01:07.512Z,12.27
2022-11-24T21:03:38.442Z,20.33
2022-11-24T21:06:10.024Z,11.40
2022-11-24T21:08:39.294Z,12.02
2022-11-24T21:11:07.965Z,12.75
2022-11-24T21:13:36.426Z,10.13
2022-11-24T21:16:24.822Z,17.85
2022-11-24T21:18:55.453Z,18.05
2022-11-24T21:21:24.390Z,12.15
2022-11-24T21:23:50.950Z,13.55
2022-11-24T21:26:18.624Z,12.05
2022-11-24T21:28:47.542Z,12.27
2022-11-24T21:31:16.794Z,18.70
2022-11-24T21:33:45.626Z,14.88
2022-11-24T21:36:14.140Z,14.15
2022-11-24T21:38:41.653Z,19.38
2022-11-24T21:41:09.420Z,21.42
2022-11-24T21:43:35.973Z,9.93
2022-11-24T21:46:04.077Z,20.02
2022-11-24T21:48:31.300Z,8.45
2022-11-24T21:50:59.026Z,14.00
2022-11-24T21:53:26.592Z,17.67
2022-11-24T21:55:56.769Z,13.20
2022-11-24T21:58:23.864Z,14.32
2022-11-24T22:00:51.032Z,13.88
2022-11-24T22:03:18.461Z,15.60
2022-11-24T22:06:03.311Z,12.80
2022-11-24T22:08:30.608Z,16.23
2022-11-24T22:11:24.456Z,18.67
2022-11-24T22:13:51.824Z,19.33
2022-11-24T22:16:22.693Z,12.18
2022-11-24T22:18:50.060Z,14.30
2022-11-24T22:21:19.036Z,19.67
2022-11-24T22:23:45.505Z,19.38
2022-11-24T22:26:15.075Z,18.50
2022-11-24T22:28:42.235Z,13.93
2022-11-24T22:31:12.145Z,11.93
2022-11-24T22:33:39.162Z,16.45
2022-11-24T22:36:06.485Z,19.40
2022-11-24T22:38:33.505Z,12.48
2022-11-24T22:41:04.945Z,17.65
2022-11-24T22:43:33.362Z,15.70
2022-11-24T22:46:07.594Z,14.00
2022-11-24T22:48:34.368Z,16.08
2022-11-24T22:51:05.594Z,11.15
2022-11-24T22:53:32.151Z,20.13
2022-11-24T22:56:06.580Z,17.15
2022-11-24T22:58:33.068Z,14.57
2022-11-24T23:01:11.329Z,17.20
2022-11-24T23:03:38.525Z,22.40
2022-11-24T23:06:14.852Z,14.38
2022-11-24T23:08:41.676Z,14.00
2022-11-24T23:11:13.371Z,14.30
2022-11-24T23:13:39.843Z,14.38
2022-11-24T23:16:14.612Z,14.18
2022-11-24T23:18:42.134Z,13.82
2022-11-24T23:21:14.807Z,15.73
2022-11-24T23:23:42.043Z,18.10
2022-11-24T23:26:11.334Z,14.68
2022-11-24T23:28:38.486Z,19.45
2022-11-24T23:31:08.210Z,15.20
2022-11-24T23:33:35.513Z,12.73
2022-11-24T23:36:08.798Z,12.48
2022-11-24T23:38:35.651Z,17.30
2022-11-24T23:41:04.413Z,13.90
2022-11-24T23:43:32.257Z,23.42
2022-11-24T23:46:09.707Z,15.02
2022-11-24T23:48:37.364Z,16.30
2022-11-24T23:51:19.298Z,11.32
2022-11-24T23:53:46.594Z,13.88
2022-11-24T23:56:15.477Z,10.43
2022-11-24T23:58:42.294Z,22.15
